AAL3595 KMIA-KMEM
Flight info
| Callsign | AAL3595 |
|---|---|
| Flight time | 2h 10m |
| Altitude | 30000 |
| Route | HURCN4 SMELZ Q116 GOOGY WASER VANZE3 |
| Aircraft | A320/M-SDE3FGHIRWY/LB1 |
Departure
| Time | 2026-05-05 00:39 |
|---|---|
| Airport | Miami International Airport (KMIA) |
Arrival
| Time | 2026-05-05 02:49 |
|---|---|
| Airport | Memphis International Airport (KMEM) |
| Time | Latitude | Longitude | Altitude | Speed | Heading |
|---|---|---|---|---|---|
| 2026-05-05 00:12 | 25.79263 | -80.28204 | 19 ft | 0 kts | 152° |
| 2026-05-05 00:24 | 25.79271 | -80.28209 | 15 ft | 4 kts | 152° |
| 2026-05-05 00:24 | 25.79295 | -80.28222 | 16 ft | 4 kts | 156° |
| 2026-05-05 00:24 | 25.79321 | -80.28232 | 18 ft | 4 kts | 169° |
| 2026-05-05 00:25 | 25.79347 | -80.28234 | 18 ft | 4 kts | 198° |
| 2026-05-05 00:25 | 25.79364 | -80.28221 | 16 ft | 1 kts | 244° |
| 2026-05-05 00:25 | 25.79365 | -80.28220 | 16 ft | 0 kts | 245° |
| 2026-05-05 00:28 | 25.79363 | -80.28223 | 16 ft | 2 kts | 245° |
| 2026-05-05 00:28 | 25.79350 | -80.28256 | 17 ft | 7 kts | 246° |
| 2026-05-05 00:28 | 25.79334 | -80.28298 | 15 ft | 5 kts | 254° |
| 2026-05-05 00:29 | 25.79330 | -80.28335 | 16 ft | 4 kts | 263° |
| 2026-05-05 00:29 | 25.79329 | -80.28364 | 15 ft | 3 kts | 273° |
| 2026-05-05 00:29 | 25.79330 | -80.28387 | 16 ft | 3 kts | 269° |
| 2026-05-05 00:29 | 25.79328 | -80.28431 | 15 ft | 8 kts | 265° |
| 2026-05-05 00:30 | 25.79321 | -80.28518 | 15 ft | 12 kts | 264° |
| 2026-05-05 00:30 | 25.79321 | -80.28605 | 15 ft | 11 kts | 277° |
| 2026-05-05 00:30 | 25.79313 | -80.28682 | 15 ft | 10 kts | 252° |
| 2026-05-05 00:30 | 25.79300 | -80.28750 | 15 ft | 9 kts | 274° |
| 2026-05-05 00:31 | 25.79324 | -80.28804 | 14 ft | 7 kts | 301° |
| 2026-05-05 00:31 | 25.79347 | -80.28846 | 14 ft | 6 kts | 299° |
| 2026-05-05 00:31 | 25.79364 | -80.28879 | 15 ft | 6 kts | 299° |
| 2026-05-05 00:31 | 25.79402 | -80.28954 | 15 ft | 13 kts | 299° |
| 2026-05-05 00:32 | 25.79443 | -80.29036 | 15 ft | 11 kts | 299° |
| 2026-05-05 00:32 | 25.79479 | -80.29106 | 15 ft | 10 kts | 300° |
| 2026-05-05 00:32 | 25.79509 | -80.29164 | 15 ft | 8 kts | 300° |
| 2026-05-05 00:32 | 25.79533 | -80.29210 | 15 ft | 6 kts | 300° |
| 2026-05-05 00:33 | 25.79579 | -80.29298 | 15 ft | 18 kts | 299° |
| 2026-05-05 00:33 | 25.79637 | -80.29415 | 15 ft | 16 kts | 298° |
| 2026-05-05 00:33 | 25.79689 | -80.29520 | 15 ft | 14 kts | 299° |
| 2026-05-05 00:33 | 25.79735 | -80.29611 | 14 ft | 13 kts | 299° |
| 2026-05-05 00:34 | 25.79776 | -80.29693 | 14 ft | 11 kts | 299° |
| 2026-05-05 00:34 | 25.79814 | -80.29764 | 14 ft | 10 kts | 301° |
| 2026-05-05 00:34 | 25.79846 | -80.29825 | 14 ft | 8 kts | 301° |
| 2026-05-05 00:34 | 25.79872 | -80.29875 | 14 ft | 7 kts | 299° |
| 2026-05-05 00:35 | 25.79894 | -80.29917 | 14 ft | 6 kts | 299° |
| 2026-05-05 00:35 | 25.79911 | -80.29951 | 14 ft | 5 kts | 299° |
| 2026-05-05 00:35 | 25.79925 | -80.29979 | 14 ft | 4 kts | 299° |
| 2026-05-05 00:35 | 25.79925 | -80.29980 | 14 ft | 0 kts | 299° |
| 2026-05-05 00:37 | 25.79949 | -80.30028 | 14 ft | 11 kts | 299° |
| 2026-05-05 00:37 | 25.79984 | -80.30097 | 14 ft | 9 kts | 299° |
| 2026-05-05 00:37 | 25.80026 | -80.30131 | 14 ft | 7 kts | 355° |
| 2026-05-05 00:38 | 25.80065 | -80.30121 | 14 ft | 5 kts | 45° |
| 2026-05-05 00:38 | 25.80076 | -80.29998 | 13 ft | 45 kts | 87° |
| 2026-05-05 00:38 | 25.80102 | -80.29395 | 15 ft | 109 kts | 88° |
| 2026-05-05 00:38 | 25.80145 | -80.28341 | 15 ft | 159 kts | 87° |
| 2026-05-05 00:39 | 25.80187 | -80.27066 | 529 ft | 160 kts | 86° |
| 2026-05-05 00:39 | 25.80237 | -80.25829 | 1186 ft | 161 kts | 85° |
| 2026-05-05 00:39 | 25.80299 | -80.24603 | 1800 ft | 163 kts | 86° |
| 2026-05-05 00:39 | 25.80365 | -80.23271 | 2102 ft | 184 kts | 86° |
| 2026-05-05 00:40 | 25.80434 | -80.21766 | 2358 ft | 207 kts | 86° |
| 2026-05-05 00:40 | 25.80502 | -80.20076 | 2646 ft | 231 kts | 86° |
| 2026-05-05 00:40 | 25.80595 | -80.18212 | 3107 ft | 249 kts | 81° |
| 2026-05-05 00:40 | 25.81311 | -80.16454 | 3756 ft | 259 kts | 46° |
| 2026-05-05 00:41 | 25.82870 | -80.15446 | 4460 ft | 267 kts | 14° |
| 2026-05-05 00:41 | 25.84732 | -80.15201 | 5219 ft | 272 kts | 0° |
| 2026-05-05 00:41 | 25.86636 | -80.15260 | 6006 ft | 275 kts | 354° |
| 2026-05-05 00:41 | 25.88564 | -80.15410 | 6756 ft | 279 kts | 349° |
| 2026-05-05 00:42 | 25.90437 | -80.15962 | 7474 ft | 280 kts | 336° |
| 2026-05-05 00:42 | 25.92260 | -80.16756 | 8212 ft | 284 kts | 337° |
| 2026-05-05 00:42 | 25.94155 | -80.17470 | 8941 ft | 289 kts | 339° |
| 2026-05-05 00:42 | 25.96085 | -80.18175 | 9685 ft | 292 kts | 333° |
| 2026-05-05 00:43 | 25.97845 | -80.19273 | 10359 ft | 290 kts | 318° |
| 2026-05-05 00:43 | 25.99275 | -80.20845 | 10734 ft | 301 kts | 303° |
| 2026-05-05 00:43 | 26.00301 | -80.22947 | 10885 ft | 320 kts | 289° |
| 2026-05-05 00:43 | 26.01154 | -80.25361 | 11006 ft | 342 kts | 289° |
| 2026-05-05 00:44 | 26.02034 | -80.27843 | 11270 ft | 356 kts | 289° |
| 2026-05-05 00:44 | 26.02957 | -80.30424 | 11817 ft | 361 kts | 290° |
| 2026-05-05 00:44 | 26.03895 | -80.33020 | 12439 ft | 363 kts | 290° |
| 2026-05-05 00:44 | 26.04841 | -80.35635 | 13069 ft | 365 kts | 290° |
| 2026-05-05 00:45 | 26.05789 | -80.38270 | 13686 ft | 368 kts | 290° |
| 2026-05-05 00:45 | 26.06742 | -80.40919 | 14231 ft | 370 kts | 290° |
| 2026-05-05 00:45 | 26.07699 | -80.43580 | 14786 ft | 371 kts | 290° |
| 2026-05-05 00:45 | 26.08661 | -80.46252 | 15345 ft | 373 kts | 290° |
| 2026-05-05 00:46 | 26.09627 | -80.48937 | 15905 ft | 374 kts | 290° |
| 2026-05-05 00:46 | 26.10597 | -80.51626 | 16461 ft | 375 kts | 290° |
| 2026-05-05 00:46 | 26.11578 | -80.54320 | 17024 ft | 377 kts | 291° |
| 2026-05-05 00:46 | 26.12885 | -80.56865 | 17558 ft | 383 kts | 303° |
| 2026-05-05 00:47 | 26.14695 | -80.59067 | 18091 ft | 390 kts | 315° |
| 2026-05-05 00:47 | 26.16959 | -80.60797 | 18564 ft | 400 kts | 327° |
| 2026-05-05 00:47 | 26.19521 | -80.62071 | 18987 ft | 405 kts | 331° |
| 2026-05-05 00:47 | 26.22121 | -80.63307 | 19412 ft | 407 kts | 331° |
| 2026-05-05 00:48 | 26.24732 | -80.64547 | 19833 ft | 409 kts | 331° |
| 2026-05-05 00:48 | 26.27352 | -80.65796 | 20266 ft | 410 kts | 331° |
| 2026-05-05 00:48 | 26.29983 | -80.67054 | 20668 ft | 412 kts | 331° |
| 2026-05-05 00:48 | 26.32621 | -80.68322 | 21067 ft | 414 kts | 331° |
| 2026-05-05 00:49 | 26.35274 | -80.69600 | 21451 ft | 416 kts | 331° |
| 2026-05-05 00:49 | 26.37926 | -80.70907 | 21827 ft | 416 kts | 328° |
| 2026-05-05 00:49 | 26.40383 | -80.72577 | 22192 ft | 411 kts | 318° |
| 2026-05-05 00:49 | 26.42517 | -80.74676 | 22550 ft | 408 kts | 309° |
| 2026-05-05 00:50 | 26.44441 | -80.77007 | 22896 ft | 409 kts | 308° |
| 2026-05-05 00:50 | 26.46343 | -80.79313 | 23235 ft | 411 kts | 308° |
| 2026-05-05 00:50 | 26.48284 | -80.81664 | 23565 ft | 413 kts | 309° |
| 2026-05-05 00:50 | 26.50233 | -80.84025 | 23853 ft | 414 kts | 309° |
| 2026-05-05 00:51 | 26.52187 | -80.86389 | 24144 ft | 415 kts | 309° |
| 2026-05-05 00:51 | 26.54153 | -80.88767 | 24424 ft | 417 kts | 309° |
| 2026-05-05 00:51 | 26.56120 | -80.91146 | 24706 ft | 418 kts | 309° |
| 2026-05-05 00:51 | 26.58089 | -80.93529 | 25047 ft | 418 kts | 309° |
| 2026-05-05 00:52 | 26.60061 | -80.95919 | 25328 ft | 419 kts | 309° |
| 2026-05-05 00:52 | 26.62037 | -80.98317 | 25609 ft | 420 kts | 309° |
| 2026-05-05 00:52 | 26.64014 | -81.00719 | 25876 ft | 421 kts | 309° |
| 2026-05-05 00:52 | 26.65995 | -81.03127 | 26135 ft | 422 kts | 309° |
| 2026-05-05 00:53 | 26.67982 | -81.05541 | 26381 ft | 423 kts | 309° |
| 2026-05-05 00:53 | 26.69979 | -81.07969 | 26620 ft | 423 kts | 309° |
| 2026-05-05 00:53 | 26.71977 | -81.10399 | 26862 ft | 424 kts | 309° |
| 2026-05-05 00:53 | 26.73973 | -81.12829 | 27080 ft | 425 kts | 309° |
| 2026-05-05 00:54 | 26.75977 | -81.15271 | 27298 ft | 426 kts | 309° |
| 2026-05-05 00:54 | 26.77981 | -81.17712 | 27579 ft | 425 kts | 309° |
| 2026-05-05 00:54 | 26.79977 | -81.20144 | 27894 ft | 423 kts | 309° |
| 2026-05-05 00:54 | 26.81968 | -81.22571 | 28210 ft | 422 kts | 309° |
| 2026-05-05 00:55 | 26.83925 | -81.24957 | 28523 ft | 420 kts | 309° |
| 2026-05-05 00:55 | 26.85895 | -81.27366 | 28849 ft | 418 kts | 309° |
| 2026-05-05 00:55 | 26.87855 | -81.29763 | 29177 ft | 416 kts | 309° |
| 2026-05-05 00:55 | 26.89806 | -81.32151 | 29530 ft | 414 kts | 309° |
| 2026-05-05 00:56 | 26.91745 | -81.34527 | 29906 ft | 412 kts | 309° |
| 2026-05-05 00:56 | 26.93681 | -81.36899 | 30013 ft | 413 kts | 309° |
| 2026-05-05 00:56 | 26.95621 | -81.39277 | 30019 ft | 413 kts | 309° |
| 2026-05-05 00:57 | 26.99504 | -81.44035 | 30024 ft | 413 kts | 309° |
| 2026-05-05 00:57 | 27.03381 | -81.48791 | 30024 ft | 413 kts | 309° |
| 2026-05-05 00:58 | 27.07865 | -81.52888 | 30026 ft | 421 kts | 322° |
| 2026-05-05 00:58 | 27.12807 | -81.56425 | 30027 ft | 421 kts | 322° |
| 2026-05-05 00:59 | 27.17738 | -81.59981 | 30028 ft | 421 kts | 322° |
| 2026-05-05 00:59 | 27.22638 | -81.63522 | 30063 ft | 421 kts | 322° |
| 2026-05-05 01:00 | 27.27566 | -81.67089 | 30042 ft | 421 kts | 322° |
| 2026-05-05 01:00 | 27.32482 | -81.70654 | 30047 ft | 420 kts | 322° |
| 2026-05-05 01:01 | 27.37390 | -81.74219 | 30052 ft | 420 kts | 322° |
| 2026-05-05 01:01 | 27.42307 | -81.77784 | 30049 ft | 420 kts | 322° |
| 2026-05-05 01:02 | 27.47347 | -81.81126 | 30048 ft | 425 kts | 331° |
| 2026-05-05 01:02 | 27.52790 | -81.83765 | 30045 ft | 425 kts | 331° |
| 2026-05-05 01:03 | 27.58226 | -81.86402 | 30044 ft | 425 kts | 331° |
| 2026-05-05 01:03 | 27.63652 | -81.89048 | 30052 ft | 425 kts | 331° |
| 2026-05-05 01:04 | 27.69081 | -81.91699 | 30057 ft | 425 kts | 331° |
| 2026-05-05 01:04 | 27.77216 | -81.95686 | 30047 ft | 425 kts | 331° |
| 2026-05-05 01:05 | 27.82636 | -81.98342 | 30051 ft | 425 kts | 331° |
| 2026-05-05 01:05 | 27.88072 | -82.01003 | 30067 ft | 426 kts | 331° |
| 2026-05-05 01:06 | 27.93521 | -82.03675 | 30053 ft | 427 kts | 330° |
| 2026-05-05 01:06 | 27.98980 | -82.06359 | 30046 ft | 427 kts | 330° |
| 2026-05-05 01:07 | 28.04405 | -82.09024 | 30051 ft | 428 kts | 330° |
| 2026-05-05 01:07 | 28.09682 | -82.12031 | 30051 ft | 420 kts | 320° |
| 2026-05-05 01:08 | 28.14457 | -82.15846 | 30085 ft | 420 kts | 320° |
| 2026-05-05 01:08 | 28.19241 | -82.19660 | 30090 ft | 421 kts | 320° |
| 2026-05-05 01:09 | 28.24036 | -82.23487 | 30081 ft | 421 kts | 320° |
| 2026-05-05 01:09 | 28.28822 | -82.27319 | 30072 ft | 421 kts | 320° |
| 2026-05-05 01:10 | 28.33615 | -82.31155 | 30064 ft | 421 kts | 320° |
| 2026-05-05 01:10 | 28.38404 | -82.34989 | 30062 ft | 421 kts | 320° |
| 2026-05-05 01:11 | 28.43193 | -82.38828 | 30066 ft | 421 kts | 320° |
| 2026-05-05 01:11 | 28.47977 | -82.42667 | 30084 ft | 420 kts | 320° |
| 2026-05-05 01:12 | 28.51941 | -82.45853 | 30086 ft | 419 kts | 320° |
| 2026-05-05 01:12 | 28.56701 | -82.49690 | 30084 ft | 419 kts | 320° |
| 2026-05-05 01:13 | 28.61449 | -82.53520 | 30052 ft | 418 kts | 320° |
| 2026-05-05 01:13 | 28.66198 | -82.57349 | 30046 ft | 418 kts | 320° |
| 2026-05-05 01:14 | 28.70915 | -82.61211 | 34922 ft | 415 kts | 319° |
| 2026-05-05 01:14 | 28.73158 | -82.63196 | 34913 ft | 400 kts | 320° |
| 2026-05-05 01:14 | 28.75396 | -82.65015 | 34636 ft | 391 kts | 321° |
| 2026-05-05 01:15 | 28.77631 | -82.66757 | 34084 ft | 388 kts | 322° |
| 2026-05-05 01:15 | 28.79866 | -82.68483 | 33277 ft | 389 kts | 321° |
| 2026-05-05 01:15 | 28.82108 | -82.70232 | 32328 ft | 393 kts | 321° |
| 2026-05-05 01:15 | 28.84369 | -82.72029 | 31314 ft | 399 kts | 320° |
| 2026-05-05 01:16 | 28.86660 | -82.73880 | 30529 ft | 406 kts | 320° |
| 2026-05-05 01:16 | 28.88977 | -82.75770 | 30236 ft | 413 kts | 320° |
| 2026-05-05 01:16 | 28.91324 | -82.77690 | 30052 ft | 417 kts | 320° |
| 2026-05-05 01:16 | 28.93682 | -82.79610 | 30057 ft | 415 kts | 320° |
| 2026-05-05 01:17 | 28.98378 | -82.83418 | 30058 ft | 413 kts | 320° |
| 2026-05-05 01:17 | 29.03064 | -82.87226 | 30050 ft | 413 kts | 320° |
| 2026-05-05 01:18 | 29.07743 | -82.91041 | 30054 ft | 414 kts | 320° |
| 2026-05-05 01:18 | 29.12431 | -82.94873 | 30044 ft | 414 kts | 320° |
| 2026-05-05 01:19 | 29.17097 | -82.98681 | 30042 ft | 414 kts | 320° |
| 2026-05-05 01:19 | 29.21785 | -83.02516 | 30039 ft | 414 kts | 320° |
| 2026-05-05 01:20 | 29.26471 | -83.06349 | 30038 ft | 414 kts | 320° |
| 2026-05-05 01:20 | 29.31161 | -83.10186 | 30041 ft | 414 kts | 320° |
| 2026-05-05 01:21 | 29.35847 | -83.14033 | 30043 ft | 414 kts | 320° |
| 2026-05-05 01:21 | 29.40533 | -83.17889 | 30075 ft | 414 kts | 319° |
| 2026-05-05 01:22 | 29.45207 | -83.21723 | 30072 ft | 412 kts | 319° |
| 2026-05-05 01:22 | 29.49870 | -83.25552 | 30066 ft | 412 kts | 319° |
| 2026-05-05 01:23 | 29.54523 | -83.29384 | 30071 ft | 411 kts | 319° |
| 2026-05-05 01:23 | 29.59166 | -83.33225 | 30066 ft | 411 kts | 319° |
| 2026-05-05 01:24 | 29.63807 | -83.37058 | 30061 ft | 411 kts | 319° |
| 2026-05-05 01:24 | 29.68458 | -83.40900 | 30099 ft | 411 kts | 319° |
| 2026-05-05 01:25 | 29.73093 | -83.44749 | 30079 ft | 411 kts | 319° |
| 2026-05-05 01:25 | 29.77736 | -83.48601 | 30076 ft | 411 kts | 319° |
| 2026-05-05 01:26 | 29.82339 | -83.52429 | 30077 ft | 411 kts | 319° |
| 2026-05-05 01:26 | 29.86977 | -83.56273 | 30081 ft | 410 kts | 319° |
| 2026-05-05 01:27 | 29.91603 | -83.60114 | 30083 ft | 409 kts | 319° |
| 2026-05-05 01:27 | 29.96219 | -83.63951 | 30119 ft | 409 kts | 319° |
| 2026-05-05 01:28 | 30.00823 | -83.67792 | 30106 ft | 408 kts | 319° |
| 2026-05-05 01:28 | 30.05418 | -83.71638 | 30099 ft | 407 kts | 319° |
| 2026-05-05 01:29 | 30.10008 | -83.75471 | 30084 ft | 407 kts | 319° |
| 2026-05-05 01:29 | 30.14596 | -83.79310 | 30075 ft | 407 kts | 319° |
| 2026-05-05 01:30 | 30.19187 | -83.83146 | 30066 ft | 407 kts | 319° |
| 2026-05-05 01:30 | 30.23777 | -83.86986 | 30062 ft | 407 kts | 319° |
| 2026-05-05 01:31 | 30.28359 | -83.90835 | 30092 ft | 407 kts | 319° |
| 2026-05-05 01:31 | 30.32904 | -83.94664 | 30088 ft | 406 kts | 319° |
| 2026-05-05 01:32 | 30.37467 | -83.98514 | 30087 ft | 405 kts | 319° |
| 2026-05-05 01:32 | 30.42024 | -84.02354 | 30083 ft | 405 kts | 319° |
| 2026-05-05 01:33 | 30.46575 | -84.06188 | 30078 ft | 404 kts | 319° |
| 2026-05-05 01:33 | 30.51123 | -84.10035 | 30072 ft | 404 kts | 319° |
| 2026-05-05 01:34 | 30.55660 | -84.13882 | 30071 ft | 404 kts | 319° |
| 2026-05-05 01:34 | 30.60195 | -84.17722 | 30066 ft | 403 kts | 319° |
| 2026-05-05 01:35 | 30.64728 | -84.21561 | 30059 ft | 403 kts | 319° |
| 2026-05-05 01:35 | 30.69258 | -84.25406 | 30058 ft | 403 kts | 319° |
| 2026-05-05 01:36 | 30.73786 | -84.29247 | 30043 ft | 402 kts | 319° |
| 2026-05-05 01:36 | 30.78303 | -84.33095 | 30046 ft | 401 kts | 319° |
| 2026-05-05 01:37 | 30.82808 | -84.36939 | 30048 ft | 401 kts | 319° |
| 2026-05-05 01:37 | 30.87311 | -84.40779 | 30077 ft | 401 kts | 319° |
| 2026-05-05 01:38 | 30.91811 | -84.44619 | 30070 ft | 401 kts | 319° |
| 2026-05-05 01:38 | 30.96277 | -84.48440 | 30079 ft | 401 kts | 319° |
| 2026-05-05 01:39 | 31.00767 | -84.52287 | 30071 ft | 400 kts | 319° |
| 2026-05-05 01:39 | 31.05254 | -84.56132 | 30069 ft | 400 kts | 319° |
| 2026-05-05 01:40 | 31.09735 | -84.59980 | 30064 ft | 400 kts | 319° |
| 2026-05-05 01:40 | 31.14224 | -84.63831 | 30107 ft | 400 kts | 319° |
| 2026-05-05 01:41 | 31.18704 | -84.67689 | 30081 ft | 400 kts | 319° |
| 2026-05-05 01:41 | 31.23183 | -84.71547 | 30076 ft | 400 kts | 319° |
| 2026-05-05 01:42 | 31.27652 | -84.75399 | 30074 ft | 399 kts | 319° |
| 2026-05-05 01:42 | 31.32131 | -84.79257 | 30077 ft | 399 kts | 319° |
| 2026-05-05 01:43 | 31.36606 | -84.83122 | 30086 ft | 399 kts | 319° |
| 2026-05-05 01:43 | 31.41068 | -84.86990 | 30085 ft | 399 kts | 319° |
| 2026-05-05 01:44 | 31.45525 | -84.90858 | 30104 ft | 399 kts | 319° |
| 2026-05-05 01:44 | 31.49987 | -84.94728 | 30093 ft | 399 kts | 319° |
| 2026-05-05 01:45 | 31.54450 | -84.98600 | 30081 ft | 399 kts | 319° |
| 2026-05-05 01:45 | 31.58877 | -85.02450 | 30074 ft | 399 kts | 319° |
| 2026-05-05 01:46 | 31.63328 | -85.06347 | 30057 ft | 398 kts | 319° |
| 2026-05-05 01:46 | 31.67761 | -85.10232 | 30056 ft | 398 kts | 319° |
| 2026-05-05 01:47 | 31.72198 | -85.14127 | 30098 ft | 398 kts | 319° |
| 2026-05-05 01:47 | 31.76635 | -85.18029 | 30075 ft | 399 kts | 319° |
| 2026-05-05 01:48 | 31.81074 | -85.21938 | 30062 ft | 399 kts | 319° |
| 2026-05-05 01:48 | 31.85515 | -85.25857 | 30055 ft | 399 kts | 319° |
| 2026-05-05 01:49 | 31.89961 | -85.29767 | 30049 ft | 399 kts | 319° |
| 2026-05-05 01:49 | 31.94413 | -85.33683 | 30042 ft | 399 kts | 319° |
| 2026-05-05 01:50 | 31.98828 | -85.37582 | 30040 ft | 399 kts | 319° |
| 2026-05-05 01:50 | 32.03270 | -85.41518 | 30050 ft | 400 kts | 319° |
| 2026-05-05 01:51 | 32.07707 | -85.45457 | 30027 ft | 399 kts | 319° |
| 2026-05-05 01:51 | 32.12146 | -85.49396 | 30030 ft | 399 kts | 319° |
| 2026-05-05 01:52 | 32.16589 | -85.53337 | 30038 ft | 399 kts | 319° |
| 2026-05-05 01:52 | 32.21026 | -85.57278 | 30036 ft | 399 kts | 319° |
| 2026-05-05 01:53 | 32.25461 | -85.61230 | 30028 ft | 399 kts | 319° |
| 2026-05-05 01:53 | 32.29893 | -85.65188 | 30052 ft | 400 kts | 319° |
| 2026-05-05 01:54 | 32.34306 | -85.69128 | 30022 ft | 400 kts | 319° |
| 2026-05-05 01:54 | 32.38755 | -85.73097 | 30012 ft | 401 kts | 319° |
| 2026-05-05 01:55 | 32.43214 | -85.77090 | 30012 ft | 401 kts | 319° |
| 2026-05-05 01:55 | 32.47672 | -85.81079 | 30009 ft | 402 kts | 319° |
| 2026-05-05 01:56 | 32.52140 | -85.85082 | 30010 ft | 402 kts | 319° |
| 2026-05-05 01:56 | 32.56602 | -85.89090 | 30030 ft | 403 kts | 319° |
| 2026-05-05 01:57 | 32.60313 | -85.92443 | 30012 ft | 404 kts | 319° |
| 2026-05-05 01:57 | 32.65542 | -85.97157 | 30002 ft | 404 kts | 319° |
| 2026-05-05 01:58 | 32.69268 | -86.00512 | 29999 ft | 404 kts | 319° |
| 2026-05-05 01:58 | 32.73751 | -86.04551 | 30000 ft | 405 kts | 319° |
| 2026-05-05 01:59 | 32.78233 | -86.08597 | 30004 ft | 405 kts | 319° |
| 2026-05-05 01:59 | 32.82711 | -86.12652 | 30006 ft | 405 kts | 319° |
| 2026-05-05 02:00 | 32.87199 | -86.16724 | 30011 ft | 406 kts | 319° |
| 2026-05-05 02:00 | 32.91699 | -86.20813 | 30000 ft | 406 kts | 319° |
| 2026-05-05 02:01 | 32.96187 | -86.24886 | 30005 ft | 406 kts | 319° |
| 2026-05-05 02:01 | 33.00641 | -86.28943 | 30009 ft | 405 kts | 319° |
| 2026-05-05 02:02 | 33.05121 | -86.33019 | 30025 ft | 405 kts | 319° |
| 2026-05-05 02:02 | 33.09594 | -86.37096 | 30029 ft | 405 kts | 319° |
| 2026-05-05 02:03 | 33.14067 | -86.41184 | 30029 ft | 406 kts | 319° |
| 2026-05-05 02:03 | 33.18556 | -86.45283 | 30024 ft | 406 kts | 319° |
| 2026-05-05 02:04 | 33.23046 | -86.49386 | 30016 ft | 407 kts | 319° |
| 2026-05-05 02:04 | 33.27535 | -86.53509 | 30004 ft | 407 kts | 319° |
| 2026-05-05 02:05 | 33.32022 | -86.57635 | 29991 ft | 406 kts | 320° |
| 2026-05-05 02:05 | 33.36499 | -86.61755 | 30028 ft | 405 kts | 320° |
| 2026-05-05 02:06 | 33.40955 | -86.65857 | 30039 ft | 404 kts | 320° |
| 2026-05-05 02:06 | 33.45398 | -86.69957 | 30034 ft | 403 kts | 319° |
| 2026-05-05 02:07 | 33.49836 | -86.74055 | 30034 ft | 403 kts | 319° |
| 2026-05-05 02:07 | 33.54268 | -86.78155 | 30028 ft | 402 kts | 319° |
| 2026-05-05 02:08 | 33.58673 | -86.82226 | 30027 ft | 402 kts | 319° |
| 2026-05-05 02:08 | 33.63102 | -86.86325 | 30017 ft | 402 kts | 319° |
| 2026-05-05 02:09 | 33.67193 | -86.90845 | 30022 ft | 400 kts | 307° |
| 2026-05-05 02:09 | 33.70029 | -86.96591 | 29974 ft | 400 kts | 299° |
| 2026-05-05 02:10 | 33.72683 | -87.02451 | 29978 ft | 399 kts | 299° |
| 2026-05-05 02:10 | 33.75347 | -87.08294 | 29965 ft | 398 kts | 299° |
| 2026-05-05 02:11 | 33.78002 | -87.14148 | 29956 ft | 398 kts | 299° |
| 2026-05-05 02:11 | 33.80649 | -87.19987 | 29991 ft | 398 kts | 299° |
| 2026-05-05 02:12 | 33.84615 | -87.28768 | 29999 ft | 398 kts | 299° |
| 2026-05-05 02:13 | 33.87241 | -87.34620 | 29989 ft | 397 kts | 299° |
| 2026-05-05 02:13 | 33.89863 | -87.40469 | 30002 ft | 396 kts | 299° |
| 2026-05-05 02:14 | 33.92496 | -87.46299 | 29999 ft | 396 kts | 299° |
| 2026-05-05 02:14 | 33.95100 | -87.52102 | 30007 ft | 397 kts | 299° |
| 2026-05-05 02:15 | 33.97739 | -87.57989 | 29981 ft | 397 kts | 299° |
| 2026-05-05 02:15 | 34.00340 | -87.63811 | 29965 ft | 397 kts | 299° |
| 2026-05-05 02:16 | 34.02965 | -87.69673 | 29952 ft | 397 kts | 300° |
| 2026-05-05 02:16 | 34.05860 | -87.75345 | 29932 ft | 396 kts | 303° |
| 2026-05-05 02:17 | 34.08924 | -87.80868 | 29953 ft | 396 kts | 303° |
| 2026-05-05 02:17 | 34.11965 | -87.86403 | 29956 ft | 395 kts | 303° |
| 2026-05-05 02:18 | 34.14953 | -87.91977 | 29946 ft | 395 kts | 303° |
| 2026-05-05 02:18 | 34.17921 | -87.97565 | 29950 ft | 395 kts | 303° |
| 2026-05-05 02:19 | 34.20860 | -88.03115 | 29979 ft | 395 kts | 302° |
| 2026-05-05 02:19 | 34.23742 | -88.08783 | 29956 ft | 396 kts | 301° |
| 2026-05-05 02:20 | 34.26554 | -88.14497 | 29931 ft | 395 kts | 301° |
| 2026-05-05 02:20 | 34.29368 | -88.20205 | 29938 ft | 395 kts | 301° |
| 2026-05-05 02:21 | 34.32198 | -88.25907 | 29940 ft | 395 kts | 301° |
| 2026-05-05 02:21 | 34.35031 | -88.31603 | 29944 ft | 395 kts | 301° |
| 2026-05-05 02:22 | 34.37852 | -88.37304 | 29945 ft | 395 kts | 301° |
| 2026-05-05 02:22 | 34.40672 | -88.43020 | 29949 ft | 395 kts | 301° |
| 2026-05-05 02:23 | 34.43492 | -88.48729 | 29926 ft | 394 kts | 301° |
| 2026-05-05 02:23 | 34.46299 | -88.54433 | 29948 ft | 393 kts | 301° |
| 2026-05-05 02:24 | 34.49094 | -88.60129 | 29962 ft | 394 kts | 301° |
| 2026-05-05 02:24 | 34.51897 | -88.65844 | 29952 ft | 394 kts | 301° |
| 2026-05-05 02:24 | 34.53288 | -88.68686 | 29724 ft | 388 kts | 301° |
| 2026-05-05 02:25 | 34.54642 | -88.71446 | 29440 ft | 384 kts | 301° |
| 2026-05-05 02:25 | 34.56026 | -88.74262 | 28468 ft | 386 kts | 301° |
| 2026-05-05 02:25 | 34.57402 | -88.77064 | 27679 ft | 384 kts | 301° |
| 2026-05-05 02:25 | 34.58752 | -88.79814 | 26796 ft | 386 kts | 300° |
| 2026-05-05 02:26 | 34.60117 | -88.82603 | 26209 ft | 382 kts | 300° |
| 2026-05-05 02:26 | 34.61468 | -88.85367 | 25569 ft | 379 kts | 300° |
| 2026-05-05 02:26 | 34.62803 | -88.88114 | 24931 ft | 377 kts | 299° |
| 2026-05-05 02:26 | 34.63883 | -88.91003 | 24318 ft | 375 kts | 288° |
| 2026-05-05 02:27 | 34.64553 | -88.94029 | 23956 ft | 368 kts | 285° |
| 2026-05-05 02:27 | 34.65192 | -88.96995 | 23162 ft | 360 kts | 285° |
| 2026-05-05 02:27 | 34.65836 | -88.99931 | 22142 ft | 358 kts | 285° |
| 2026-05-05 02:27 | 34.66477 | -89.02837 | 21190 ft | 355 kts | 285° |
| 2026-05-05 02:28 | 34.67113 | -89.05721 | 20276 ft | 352 kts | 286° |
| 2026-05-05 02:28 | 34.67742 | -89.08580 | 19390 ft | 349 kts | 286° |
| 2026-05-05 02:28 | 34.68376 | -89.11406 | 18811 ft | 345 kts | 286° |
| 2026-05-05 02:28 | 34.69026 | -89.14209 | 18292 ft | 346 kts | 287° |
| 2026-05-05 02:29 | 34.69685 | -89.17017 | 17781 ft | 344 kts | 287° |
| 2026-05-05 02:29 | 34.70343 | -89.19825 | 17163 ft | 346 kts | 287° |
| 2026-05-05 02:29 | 34.70994 | -89.22618 | 16712 ft | 342 kts | 287° |
| 2026-05-05 02:29 | 34.71639 | -89.25399 | 16249 ft | 340 kts | 287° |
| 2026-05-05 02:30 | 34.72271 | -89.28151 | 15823 ft | 337 kts | 286° |
| 2026-05-05 02:30 | 34.72882 | -89.30873 | 15539 ft | 332 kts | 286° |
| 2026-05-05 02:30 | 34.73479 | -89.33581 | 15266 ft | 331 kts | 285° |
| 2026-05-05 02:30 | 34.74070 | -89.36275 | 14978 ft | 329 kts | 285° |
| 2026-05-05 02:31 | 34.74661 | -89.38964 | 14697 ft | 329 kts | 285° |
| 2026-05-05 02:31 | 34.75254 | -89.41642 | 14422 ft | 327 kts | 286° |
| 2026-05-05 02:31 | 34.75838 | -89.44275 | 14155 ft | 326 kts | 286° |
| 2026-05-05 02:31 | 34.76428 | -89.46934 | 13880 ft | 325 kts | 286° |
| 2026-05-05 02:32 | 34.77115 | -89.49541 | 13591 ft | 323 kts | 293° |
| 2026-05-05 02:32 | 34.78181 | -89.51947 | 13299 ft | 322 kts | 301° |
| 2026-05-05 02:32 | 34.79358 | -89.54261 | 13033 ft | 321 kts | 301° |
| 2026-05-05 02:32 | 34.80531 | -89.56570 | 12763 ft | 321 kts | 301° |
| 2026-05-05 02:33 | 34.81700 | -89.58879 | 12489 ft | 319 kts | 301° |
| 2026-05-05 02:33 | 34.82847 | -89.61145 | 12322 ft | 308 kts | 300° |
| 2026-05-05 02:33 | 34.83951 | -89.63325 | 12191 ft | 297 kts | 300° |
| 2026-05-05 02:33 | 34.85015 | -89.65428 | 12028 ft | 288 kts | 300° |
| 2026-05-05 02:34 | 34.86050 | -89.67484 | 11864 ft | 282 kts | 300° |
| 2026-05-05 02:34 | 34.87073 | -89.69520 | 11803 ft | 282 kts | 300° |
| 2026-05-05 02:34 | 34.88094 | -89.71555 | 11688 ft | 281 kts | 300° |
| 2026-05-05 02:34 | 34.89112 | -89.73585 | 11544 ft | 281 kts | 300° |
| 2026-05-05 02:35 | 34.90131 | -89.75611 | 11410 ft | 280 kts | 300° |
| 2026-05-05 02:35 | 34.91150 | -89.77634 | 11265 ft | 280 kts | 300° |
| 2026-05-05 02:35 | 34.92165 | -89.79654 | 11123 ft | 279 kts | 300° |
| 2026-05-05 02:35 | 34.93178 | -89.81671 | 10971 ft | 279 kts | 300° |
| 2026-05-05 02:36 | 34.94255 | -89.83683 | 10313 ft | 291 kts | 308° |
| 2026-05-05 02:36 | 34.95870 | -89.85253 | 9574 ft | 308 kts | 331° |
| 2026-05-05 02:36 | 34.97956 | -89.85877 | 9239 ft | 310 kts | 354° |
| 2026-05-05 02:36 | 35.00079 | -89.85930 | 9094 ft | 300 kts | 355° |
| 2026-05-05 02:37 | 35.02152 | -89.85977 | 8670 ft | 299 kts | 355° |
| 2026-05-05 02:37 | 35.04231 | -89.86022 | 8234 ft | 299 kts | 355° |
| 2026-05-05 02:37 | 35.06306 | -89.86065 | 7810 ft | 298 kts | 355° |
| 2026-05-05 02:37 | 35.08376 | -89.86106 | 7380 ft | 297 kts | 355° |
| 2026-05-05 02:38 | 35.10444 | -89.86149 | 6957 ft | 296 kts | 355° |
| 2026-05-05 02:38 | 35.12501 | -89.86192 | 6537 ft | 296 kts | 355° |
| 2026-05-05 02:38 | 35.14558 | -89.86237 | 6096 ft | 295 kts | 355° |
| 2026-05-05 02:38 | 35.16605 | -89.86281 | 5645 ft | 294 kts | 355° |
| 2026-05-05 02:39 | 35.18641 | -89.86323 | 5219 ft | 289 kts | 355° |
| 2026-05-05 02:39 | 35.20605 | -89.86361 | 4817 ft | 277 kts | 355° |
| 2026-05-05 02:39 | 35.22500 | -89.86398 | 4420 ft | 267 kts | 355° |
| 2026-05-05 02:39 | 35.24325 | -89.86434 | 4039 ft | 259 kts | 355° |
| 2026-05-05 02:40 | 35.26094 | -89.86469 | 3683 ft | 250 kts | 354° |
| 2026-05-05 02:40 | 35.27789 | -89.86504 | 3328 ft | 243 kts | 355° |
| 2026-05-05 02:40 | 35.29453 | -89.86555 | 3011 ft | 233 kts | 349° |
| 2026-05-05 02:40 | 35.30853 | -89.87253 | 2986 ft | 210 kts | 307° |
| 2026-05-05 02:41 | 35.31512 | -89.88712 | 2984 ft | 189 kts | 269° |
| 2026-05-05 02:41 | 35.31340 | -89.90218 | 2981 ft | 176 kts | 238° |
| 2026-05-05 02:41 | 35.30625 | -89.91397 | 2980 ft | 173 kts | 227° |
| 2026-05-05 02:41 | 35.29854 | -89.92527 | 2981 ft | 173 kts | 227° |
| 2026-05-05 02:42 | 35.29085 | -89.93658 | 2979 ft | 173 kts | 227° |
| 2026-05-05 02:42 | 35.28315 | -89.94790 | 2981 ft | 172 kts | 227° |
| 2026-05-05 02:42 | 35.27564 | -89.95895 | 3005 ft | 162 kts | 227° |
| 2026-05-05 02:42 | 35.26839 | -89.96848 | 2985 ft | 146 kts | 218° |
| 2026-05-05 02:43 | 35.25982 | -89.97453 | 2974 ft | 141 kts | 200° |
| 2026-05-05 02:43 | 35.25009 | -89.97583 | 2970 ft | 139 kts | 189° |
| 2026-05-05 02:43 | 35.24044 | -89.97632 | 2973 ft | 138 kts | 186° |
| 2026-05-05 02:43 | 35.23086 | -89.97646 | 2970 ft | 138 kts | 186° |
| 2026-05-05 02:44 | 35.22126 | -89.97642 | 2980 ft | 138 kts | 184° |
| 2026-05-05 02:44 | 35.21168 | -89.97630 | 2983 ft | 137 kts | 185° |
| 2026-05-05 02:44 | 35.20536 | -89.97620 | 2984 ft | 137 kts | 184° |
| 2026-05-05 02:44 | 35.19581 | -89.97602 | 2971 ft | 137 kts | 185° |
| 2026-05-05 02:45 | 35.18315 | -89.97577 | 2838 ft | 135 kts | 184° |
| 2026-05-05 02:45 | 35.17689 | -89.97561 | 2834 ft | 136 kts | 184° |
| 2026-05-05 02:45 | 35.16745 | -89.97531 | 2770 ft | 136 kts | 184° |
| 2026-05-05 02:45 | 35.15794 | -89.97485 | 2543 ft | 136 kts | 182° |
| 2026-05-05 02:46 | 35.14854 | -89.97432 | 2314 ft | 135 kts | 182° |
| 2026-05-05 02:46 | 35.13919 | -89.97428 | 2092 ft | 134 kts | 186° |
| 2026-05-05 02:46 | 35.12993 | -89.97468 | 1914 ft | 133 kts | 185° |
| 2026-05-05 02:46 | 35.12061 | -89.97434 | 1693 ft | 134 kts | 183° |
| 2026-05-05 02:47 | 35.11131 | -89.97390 | 1470 ft | 134 kts | 184° |
| 2026-05-05 02:47 | 35.10205 | -89.97377 | 1301 ft | 134 kts | 184° |
| 2026-05-05 02:47 | 35.09271 | -89.97336 | 1193 ft | 134 kts | 181° |
| 2026-05-05 02:47 | 35.08340 | -89.97378 | 1073 ft | 134 kts | 183° |
| 2026-05-05 02:48 | 35.07410 | -89.97329 | 854 ft | 134 kts | 181° |
| 2026-05-05 02:48 | 35.06481 | -89.97330 | 673 ft | 134 kts | 178° |
| 2026-05-05 02:48 | 35.05557 | -89.97306 | 480 ft | 131 kts | 180° |
| 2026-05-05 02:48 | 35.04648 | -89.97291 | 353 ft | 130 kts | 179° |
| 2026-05-05 02:49 | 35.03843 | -89.97275 | 330 ft | 93 kts | 179° |
| 2026-05-05 02:49 | 35.03410 | -89.97265 | 328 ft | 21 kts | 179° |
| 2026-05-05 02:49 | 35.03286 | -89.97307 | 328 ft | 17 kts | 206° |
| 2026-05-05 02:49 | 35.03217 | -89.97359 | 328 ft | 0 kts | 218° |
| 2026-05-05 02:50 | 35.03213 | -89.97362 | 328 ft | 3 kts | 218° |
| 2026-05-05 02:50 | 35.03174 | -89.97402 | 324 ft | 11 kts | 223° |
| 2026-05-05 02:50 | 35.03168 | -89.97538 | 323 ft | 21 kts | 277° |
| 2026-05-05 02:51 | 35.03171 | -89.97699 | 327 ft | 12 kts | 285° |
| 2026-05-05 02:51 | 35.03240 | -89.97723 | 326 ft | 11 kts | 358° |
| 2026-05-05 02:51 | 35.03312 | -89.97726 | 326 ft | 10 kts | 358° |